createdAt,value
2019-04-10T00:00:39.203Z,49.60
2019-04-10T00:03:08.364Z,49.70
2019-04-10T00:05:38.197Z,49.60
2019-04-10T00:08:08.225Z,49.50
2019-04-10T00:10:38.316Z,49.60
2019-04-10T00:13:07.412Z,49.50
2019-04-10T00:15:36.520Z,49.40
2019-04-10T00:18:05.602Z,49.40
2019-04-10T00:20:34.705Z,49.30
2019-04-10T00:23:03.800Z,49.40
2019-04-10T00:25:32.926Z,49.40
2019-04-10T00:28:03.184Z,49.30
2019-04-10T00:30:33.270Z,49.40
2019-04-10T00:33:02.761Z,49.20
2019-04-10T00:35:32.346Z,49.30
2019-04-10T00:38:01.754Z,49.40
2019-04-10T00:40:31.196Z,49.20
2019-04-10T00:43:00.343Z,49.20
2019-04-10T00:45:29.453Z,49.20
2019-04-10T00:47:59.530Z,49.20
2019-04-10T00:50:28.825Z,49.20
2019-04-10T00:52:58.755Z,49.60
2019-04-10T00:55:28.817Z,49.30
2019-04-10T00:57:58.344Z,49.20
2019-04-10T01:00:27.404Z,49.80
2019-04-10T01:02:56.825Z,49.10
2019-04-10T01:05:26.978Z,49.20
2019-04-10T01:07:56.137Z,49.20
2019-04-10T01:10:26.068Z,49.10
2019-04-10T01:12:56.477Z,49.10
2019-04-10T01:15:26.652Z,49.10
2019-04-10T01:17:56.902Z,49.10
2019-04-10T01:20:26.144Z,49.10
2019-04-10T01:22:55.305Z,49.10
2019-04-10T01:25:24.374Z,49.20
2019-04-10T01:27:53.452Z,49.10
2019-04-10T01:30:22.542Z,49.10
2019-04-10T01:32:52.304Z,49.10
2019-04-10T01:35:22.375Z,49.10
2019-04-10T01:37:56.190Z,49.00
2019-04-10T01:40:23.288Z,49.10
2019-04-10T01:43:02.359Z,49.10
2019-04-10T01:45:23.377Z,49.10
2019-04-10T01:47:53.288Z,49.00
2019-04-10T01:50:22.541Z,49.00
2019-04-10T01:52:51.669Z,49.00
2019-04-10T01:55:25.772Z,49.70
2019-04-10T01:57:52.649Z,49.00
2019-04-10T02:00:22.390Z,49.60
2019-04-10T02:02:52.224Z,49.00
2019-04-10T02:05:21.349Z,48.50
2019-04-10T02:08:02.156Z,49.00
2019-04-10T02:10:21.278Z,49.00
2019-04-10T02:12:50.820Z,48.90
2019-04-10T02:15:20.117Z,48.90
2019-04-10T02:17:49.197Z,48.90
2019-04-10T02:20:18.956Z,48.90
2019-04-10T02:22:48.205Z,48.90
2019-04-10T02:25:17.932Z,48.90
2019-04-10T02:27:47.217Z,48.90
2019-04-10T02:30:17.542Z,48.90
2019-04-10T02:32:48.247Z,48.90
2019-04-10T02:35:20.288Z,48.90
2019-04-10T02:37:52.735Z,49.00
2019-04-10T02:40:21.129Z,49.50
2019-04-10T02:42:51.358Z,48.90
2019-04-10T02:45:21.916Z,48.90
2019-04-10T02:47:52.756Z,48.80
2019-04-10T02:50:22.088Z,48.90
2019-04-10T02:52:51.614Z,49.10
2019-04-10T02:55:20.800Z,48.80
2019-04-10T02:57:50.101Z,48.80
2019-04-10T03:00:20.322Z,48.90
2019-04-10T03:02:52.027Z,48.80
2019-04-10T03:05:27.370Z,48.80
2019-04-10T03:07:58.263Z,48.70
2019-04-10T03:10:37.159Z,48.80
2019-04-10T03:12:58.843Z,48.70
2019-04-10T03:15:29.681Z,48.70
2019-04-10T03:17:59.156Z,48.70
2019-04-10T03:20:28.230Z,48.70
2019-04-10T03:22:57.388Z,48.70
2019-04-10T03:25:26.731Z,48.70
2019-04-10T03:27:56.046Z,48.70
2019-04-10T03:30:25.108Z,48.70
2019-04-10T03:33:22.648Z,48.80
2019-04-10T03:35:51.755Z,48.70
2019-04-10T03:38:21.687Z,48.60
2019-04-10T03:40:51.453Z,48.60
2019-04-10T03:43:21.561Z,48.70
2019-04-10T03:45:50.830Z,48.70
2019-04-10T03:48:20.191Z,48.70
2019-04-10T03:50:50.139Z,48.60
2019-04-10T03:53:20.278Z,48.60
2019-04-10T03:55:50.623Z,48.60
2019-04-10T03:58:20.361Z,48.60
2019-04-10T04:00:50.623Z,48.60
2019-04-10T04:03:20.426Z,48.60
2019-04-10T04:05:49.561Z,48.60
2019-04-10T04:08:19.349Z,48.50
2019-04-10T04:10:49.008Z,48.60
2019-04-10T04:13:18.166Z,48.50
2019-04-10T04:15:48.370Z,48.50
2019-04-10T04:18:17.610Z,48.50
2019-04-10T04:20:47.531Z,48.50
2019-04-10T04:23:17.173Z,48.50
2019-04-10T04:25:46.414Z,48.50
2019-04-10T04:28:16.888Z,48.50
2019-04-10T04:30:46.197Z,48.50
2019-04-10T04:33:15.516Z,48.50
2019-04-10T04:35:44.629Z,48.50
2019-04-10T04:38:13.748Z,48.50
2019-04-10T04:40:42.837Z,48.50
2019-04-10T04:43:12.502Z,48.50
2019-04-10T04:45:42.229Z,48.50
2019-04-10T04:48:11.506Z,48.60
2019-04-10T04:50:41.538Z,48.50
2019-04-10T04:53:10.799Z,48.50
2019-04-10T04:55:39.991Z,48.50
2019-04-10T04:58:09.716Z,48.50
2019-04-10T05:00:39.576Z,48.50
2019-04-10T05:03:09.893Z,48.50
2019-04-10T05:05:39.191Z,48.50
2019-04-10T05:08:08.487Z,48.50
2019-04-10T05:10:37.999Z,48.40
2019-04-10T05:13:08.129Z,48.50
2019-04-10T05:15:37.406Z,48.40
2019-04-10T05:18:06.544Z,48.40
2019-04-10T05:20:45.049Z,48.40
2019-04-10T05:23:06.395Z,48.50
2019-04-10T05:25:35.971Z,48.40
2019-04-10T05:28:05.822Z,48.40
2019-04-10T05:30:35.670Z,48.40
2019-04-10T05:33:06.181Z,48.40
2019-04-10T05:35:36.417Z,48.40
2019-04-10T05:38:05.700Z,48.40
2019-04-10T05:40:34.787Z,48.40
2019-04-10T05:43:03.878Z,48.40
2019-04-10T05:45:33.884Z,48.40
2019-04-10T05:48:03.364Z,48.40
2019-04-10T05:50:32.573Z,48.40
2019-04-10T05:53:02.297Z,48.40
2019-04-10T05:55:31.625Z,48.40
2019-04-10T05:58:01.687Z,48.40
2019-04-10T06:00:31.028Z,48.40
2019-04-10T06:03:00.469Z,48.40
2019-04-10T06:05:29.946Z,48.40
2019-04-10T06:07:59.369Z,48.40
2019-04-10T06:10:28.515Z,48.50
2019-04-10T06:12:58.429Z,48.60
2019-04-10T06:15:28.720Z,48.70
2019-04-10T06:17:59.028Z,48.60
2019-04-10T06:20:29.178Z,48.60
2019-04-10T06:22:59.122Z,48.50
2019-04-10T06:25:28.961Z,48.60
2019-04-10T06:27:59.112Z,48.50
2019-04-10T06:30:28.168Z,48.70
2019-04-10T06:32:57.915Z,48.80
2019-04-10T06:35:28.204Z,48.80
2019-04-10T06:37:57.410Z,48.90
2019-04-10T06:40:27.964Z,48.90
2019-04-10T06:42:58.292Z,48.90
2019-04-10T06:45:28.125Z,49.00
2019-04-10T06:47:58.380Z,49.00
2019-04-10T06:50:28.619Z,49.00
2019-04-10T06:52:58.883Z,49.00
2019-04-10T06:55:28.151Z,49.00
2019-04-10T06:57:58.914Z,48.90
2019-04-10T07:00:28.560Z,49.00
2019-04-10T07:02:58.851Z,48.90
2019-04-10T07:05:39.809Z,49.00
2019-04-10T07:08:09.195Z,49.00
2019-04-10T07:10:39.820Z,48.90
2019-04-10T07:13:05.184Z,49.00
2019-04-10T07:15:31.536Z,48.90
2019-04-10T07:18:00.990Z,48.90
2019-04-10T07:20:30.313Z,48.90
2019-04-10T07:22:59.595Z,48.90
2019-04-10T07:25:29.821Z,48.80
2019-04-10T07:27:59.045Z,48.90
2019-04-10T07:30:28.178Z,48.80
2019-04-10T07:32:57.233Z,48.80
2019-04-10T07:35:28.606Z,48.80
2019-04-10T07:37:58.500Z,48.70
2019-04-10T07:40:28.339Z,48.70
2019-04-10T07:42:58.644Z,48.70
2019-04-10T07:45:27.921Z,48.70
2019-04-10T07:47:57.017Z,48.80
2019-04-10T07:50:26.194Z,48.70
2019-04-10T07:52:55.268Z,48.70
2019-04-10T07:55:25.362Z,48.60
2019-04-10T07:57:55.244Z,48.70
2019-04-10T08:00:25.345Z,48.70
2019-04-10T08:02:55.381Z,48.60
2019-04-10T08:05:25.044Z,48.60
2019-04-10T08:07:55.927Z,48.60
2019-04-10T08:10:24.988Z,48.70
2019-04-10T08:12:54.368Z,48.60
2019-04-10T08:15:23.564Z,48.60
2019-04-10T08:17:54.031Z,48.70
2019-04-10T08:20:24.018Z,48.60
2019-04-10T08:22:53.340Z,48.60
2019-04-10T08:25:22.784Z,48.70
2019-04-10T08:27:52.322Z,48.50
2019-04-10T08:30:21.664Z,48.60
2019-04-10T08:32:57.245Z,48.60
2019-04-10T08:35:21.607Z,48.50
2019-04-10T08:37:50.822Z,48.50
2019-04-10T08:40:21.065Z,48.60
2019-04-10T08:42:51.265Z,48.50
2019-04-10T08:45:21.052Z,48.50
2019-04-10T08:47:50.819Z,48.60
2019-04-10T08:50:20.085Z,48.50
2019-04-10T08:52:49.148Z,48.60
2019-04-10T08:55:18.739Z,48.50
2019-04-10T08:57:47.795Z,48.50
2019-04-10T09:00:18.499Z,48.50
2019-04-10T09:02:48.597Z,48.50
2019-04-10T09:05:17.816Z,48.50
2019-04-10T09:07:46.900Z,48.40
2019-04-10T09:10:16.473Z,48.50
2019-04-10T09:12:45.720Z,48.50
2019-04-10T09:15:15.953Z,48.40
2019-04-10T09:17:45.192Z,48.40
2019-04-10T09:20:14.365Z,48.40
2019-04-10T09:23:07.613Z,48.40
2019-04-10T09:25:16.557Z,48.40
2019-04-10T09:27:46.330Z,48.40
2019-04-10T09:30:16.431Z,48.40
2019-04-10T09:32:46.425Z,48.40
2019-04-10T09:35:16.343Z,48.40
2019-04-10T09:37:46.274Z,48.30
2019-04-10T09:40:16.242Z,48.40
2019-04-10T09:42:45.965Z,48.30
2019-04-10T09:45:15.648Z,48.40
2019-04-10T09:47:45.831Z,48.30
2019-04-10T09:50:15.225Z,48.40
2019-04-10T09:52:44.385Z,48.30
2019-04-10T09:55:13.958Z,48.30
2019-04-10T09:57:43.216Z,48.40
2019-04-10T10:00:12.278Z,48.30
2019-04-10T10:02:41.373Z,48.30
2019-04-10T10:05:10.838Z,48.20
2019-04-10T10:07:40.963Z,48.30
2019-04-10T10:10:10.723Z,48.20
2019-04-10T10:12:40.736Z,48.30
2019-04-10T10:15:10.036Z,48.20
2019-04-10T10:17:39.318Z,48.20
2019-04-10T10:20:09.220Z,48.20
2019-04-10T10:22:39.056Z,48.20
2019-04-10T10:25:08.998Z,48.20
2019-04-10T10:27:38.539Z,48.20
2019-04-10T10:30:09.700Z,48.20
2019-04-10T10:32:39.314Z,48.20
2019-04-10T10:35:09.293Z,48.20
2019-04-10T10:37:38.877Z,48.20
2019-04-10T10:40:09.987Z,48.20
2019-04-10T10:42:40.999Z,48.20
2019-04-10T10:45:10.706Z,48.20
2019-04-10T10:47:40.381Z,48.20
2019-04-10T10:50:10.545Z,48.30
2019-04-10T10:52:40.117Z,48.20
2019-04-10T10:55:09.717Z,48.20
2019-04-10T10:57:39.572Z,48.20
2019-04-10T11:00:11.962Z,48.20
2019-04-10T11:02:40.021Z,48.30
2019-04-10T11:05:09.098Z,48.30
2019-04-10T11:07:38.890Z,48.20
2019-04-10T11:10:08.541Z,48.20
2019-04-10T11:12:38.361Z,48.20
2019-04-10T11:15:08.019Z,48.20
2019-04-10T11:17:38.446Z,48.20
2019-04-10T11:20:10.262Z,48.10
2019-04-10T11:22:39.940Z,48.10
2019-04-10T11:25:09.713Z,48.20
2019-04-10T11:27:39.331Z,48.10
2019-04-10T11:30:10.057Z,48.10
2019-04-10T11:32:39.256Z,48.10
2019-04-10T11:35:08.354Z,48.20
2019-04-10T11:37:44.452Z,48.20
2019-04-10T11:40:09.514Z,48.50
2019-04-10T11:42:40.120Z,48.20
2019-04-10T11:45:11.237Z,48.80
2019-04-10T11:47:40.481Z,48.20
2019-04-10T11:50:14.990Z,48.30
2019-04-10T11:52:49.324Z,48.20
2019-04-10T11:55:16.160Z,48.20
2019-04-10T11:57:45.876Z,48.20
2019-04-10T12:00:19.613Z,48.20
2019-04-10T12:02:49.689Z,48.20
2019-04-10T12:05:19.920Z,48.20
2019-04-10T12:12:51.066Z,48.20
2019-04-10T12:15:20.879Z,48.10
2019-04-10T12:17:49.958Z,48.10
2019-04-10T12:20:19.016Z,48.10
2019-04-10T12:22:48.318Z,48.00
2019-04-10T12:25:18.570Z,48.10
2019-04-10T12:27:47.833Z,48.00
2019-04-10T12:30:17.577Z,48.30
2019-04-10T12:32:47.542Z,48.00
2019-04-10T12:35:17.230Z,48.00
2019-04-10T12:37:57.332Z,48.00
2019-04-10T12:40:17.366Z,48.10
2019-04-10T12:42:46.442Z,48.00
2019-04-10T12:45:16.129Z,48.00
2019-04-10T12:47:46.022Z,48.00
2019-04-10T12:50:16.197Z,48.00
2019-04-10T12:52:45.465Z,48.00
2019-04-10T12:55:14.662Z,48.00
2019-04-10T12:57:43.736Z,48.00
2019-04-10T13:00:16.012Z,48.00
2019-04-10T13:02:45.148Z,48.10
2019-04-10T13:05:14.234Z,48.00
2019-04-10T13:07:43.578Z,48.10
2019-04-10T13:10:12.870Z,48.10
2019-04-10T13:12:41.934Z,48.00
2019-04-10T13:15:12.968Z,48.00
2019-04-10T13:17:42.742Z,48.00
2019-04-10T13:20:14.237Z,48.10
2019-04-10T13:22:44.304Z,48.00
2019-04-10T13:25:14.408Z,48.00
2019-04-10T13:27:43.650Z,47.90
2019-04-10T13:30:14.681Z,47.90
2019-04-10T13:32:44.436Z,48.00
2019-04-10T13:35:14.120Z,47.90
2019-04-10T13:37:43.509Z,48.70
2019-04-10T13:40:13.190Z,47.90
2019-04-10T13:42:42.376Z,47.90
2019-04-10T13:45:11.756Z,48.00
2019-04-10T13:47:40.936Z,47.90
2019-04-10T13:50:10.655Z,47.90
2019-04-10T13:52:42.617Z,47.90
2019-04-10T13:55:11.794Z,47.80
2019-04-10T13:57:40.988Z,47.90
2019-04-10T14:00:18.281Z,47.90
2019-04-10T14:02:47.893Z,47.80
2019-04-10T14:05:17.899Z,47.80
2019-04-10T14:07:47.124Z,47.90
2019-04-10T14:10:17.103Z,47.80
2019-04-10T14:12:47.150Z,47.80
2019-04-10T14:15:16.713Z,47.80
2019-04-10T14:17:45.995Z,47.80
2019-04-10T14:20:17.856Z,47.80
2019-04-10T14:22:55.700Z,47.80
2019-04-10T14:25:31.989Z,47.80
2019-04-10T14:28:01.061Z,47.80
2019-04-10T14:30:35.723Z,47.80
2019-04-10T14:33:05.079Z,47.80
2019-04-10T14:35:35.546Z,47.90
2019-04-10T14:38:06.559Z,47.90
2019-04-10T14:40:36.020Z,47.90
2019-04-10T14:43:05.340Z,47.80
2019-04-10T14:45:35.459Z,47.80
2019-04-10T14:48:05.749Z,47.80
2019-04-10T14:50:35.088Z,47.80
2019-04-10T14:53:05.474Z,48.00
2019-04-10T14:55:35.537Z,47.80
2019-04-10T14:58:05.547Z,47.80
2019-04-10T15:00:46.741Z,47.80
2019-04-10T15:03:16.227Z,47.90
2019-04-10T15:05:50.519Z,47.80
2019-04-10T15:08:16.189Z,47.80
2019-04-10T15:10:46.003Z,47.80
2019-04-10T15:13:19.578Z,47.70
2019-04-10T15:15:45.892Z,47.80
2019-04-10T15:18:15.035Z,47.70
2019-04-10T15:20:45.326Z,47.70
2019-04-10T15:23:15.416Z,47.80
2019-04-10T15:25:44.672Z,47.70
2019-04-10T15:28:14.013Z,47.70
2019-04-10T15:30:44.470Z,47.70
2019-04-10T15:33:14.205Z,47.70
2019-04-10T15:35:44.667Z,47.70
2019-04-10T15:38:13.949Z,47.60
2019-04-10T15:40:43.986Z,47.60
2019-04-10T15:43:13.277Z,47.60
2019-04-10T15:45:42.377Z,47.60
2019-04-10T15:48:12.492Z,47.60
2019-04-10T15:50:41.783Z,47.50
2019-04-10T15:53:11.739Z,47.60
2019-04-10T15:55:41.052Z,47.60
2019-04-10T15:58:10.791Z,47.70
2019-04-10T16:00:40.053Z,47.60
2019-04-10T16:03:09.230Z,47.70
2019-04-10T16:05:38.452Z,47.60
2019-04-10T16:08:08.141Z,47.60
2019-04-10T16:10:50.575Z,47.60
2019-04-10T16:13:44.532Z,47.70
2019-04-10T16:16:42.271Z,47.70
2019-04-10T16:19:36.700Z,47.60
2019-04-10T16:22:13.077Z,47.70
2019-04-10T16:24:42.149Z,48.30
2019-04-10T16:27:11.869Z,47.70
2019-04-10T16:29:41.072Z,47.70
2019-04-10T16:32:10.969Z,47.60
2019-04-10T16:34:40.884Z,47.60
2019-04-10T16:37:10.428Z,47.60
2019-04-10T16:39:40.346Z,47.60
2019-04-10T16:42:10.531Z,47.60
2019-04-10T16:44:39.711Z,47.70
2019-04-10T16:47:09.959Z,47.60
2019-04-10T16:49:39.255Z,47.70
2019-04-10T16:52:09.160Z,47.80
2019-04-10T16:54:38.327Z,47.60
2019-04-10T16:57:07.451Z,47.70
2019-04-10T16:59:37.565Z,47.60
2019-04-10T17:02:07.287Z,47.60
2019-04-10T17:04:36.451Z,47.60
2019-04-10T17:07:06.423Z,47.60
2019-04-10T17:09:36.558Z,47.70
2019-04-10T17:12:06.581Z,47.70
2019-04-10T17:14:36.022Z,47.20
2019-04-10T17:17:06.152Z,47.70
2019-04-10T17:19:46.510Z,47.20
2019-04-10T17:22:06.851Z,47.60
2019-04-10T17:24:36.046Z,47.60
2019-04-10T17:27:06.419Z,47.50
2019-04-10T17:29:36.871Z,47.60
2019-04-10T17:32:06.876Z,47.60
2019-04-10T17:34:36.117Z,47.60
2019-04-10T17:37:05.464Z,47.50
2019-04-10T17:39:35.570Z,47.60
2019-04-10T17:42:06.070Z,47.60
2019-04-10T17:44:35.952Z,47.60
2019-04-10T17:47:07.999Z,47.60
2019-04-10T17:49:36.173Z,47.60
2019-04-10T17:52:06.310Z,47.50
2019-04-10T17:54:36.491Z,47.50
2019-04-10T17:57:05.986Z,47.50
2019-04-10T17:59:35.245Z,47.60
2019-04-10T18:02:09.476Z,47.50
2019-04-10T18:04:38.804Z,47.50
2019-04-10T18:07:08.142Z,47.60
2019-04-10T18:09:37.225Z,47.50
2019-04-10T18:12:10.071Z,47.50
2019-04-10T18:14:40.963Z,47.50
2019-04-10T18:17:10.922Z,47.50
2019-04-10T18:19:40.149Z,47.50
2019-04-10T18:22:10.102Z,47.50
2019-04-10T18:24:40.148Z,47.50
2019-04-10T18:27:09.356Z,47.40
2019-04-10T18:29:39.319Z,47.50
2019-04-10T18:32:09.616Z,47.50
2019-04-10T18:34:38.904Z,47.40
2019-04-10T18:37:09.360Z,47.40
2019-04-10T18:39:38.849Z,47.40
2019-04-10T18:42:07.929Z,47.40
2019-04-10T18:44:38.102Z,47.40
2019-04-10T18:47:07.262Z,47.50
2019-04-10T18:49:36.341Z,47.40
2019-04-10T18:52:07.367Z,47.40
2019-04-10T18:54:37.114Z,47.40
2019-04-10T18:57:07.203Z,47.50
2019-04-10T18:59:58.793Z,47.60
2019-04-10T19:02:53.939Z,47.60
2019-04-10T19:05:29.970Z,47.70
2019-04-10T19:07:59.142Z,47.60
2019-04-10T19:10:28.698Z,47.70
2019-04-10T19:12:59.416Z,47.60
2019-04-10T19:15:28.775Z,47.70
2019-04-10T19:17:57.799Z,47.70
2019-04-10T19:20:26.881Z,47.80
2019-04-10T19:22:56.791Z,47.90
2019-04-10T19:25:27.210Z,47.90
2019-04-10T19:27:56.484Z,48.00
2019-04-10T19:30:37.446Z,48.00
2019-04-10T19:33:07.873Z,48.00
2019-04-10T19:35:37.345Z,48.00
2019-04-10T19:38:07.303Z,48.80
2019-04-10T19:40:37.474Z,48.20
2019-04-10T19:43:08.285Z,48.30
2019-04-10T19:45:39.755Z,48.10
2019-04-10T19:48:09.083Z,48.10
2019-04-10T19:50:38.276Z,48.10
2019-04-10T19:53:08.987Z,48.20
2019-04-10T19:55:38.360Z,48.10
2019-04-10T19:58:08.084Z,48.20
2019-04-10T20:00:38.860Z,48.10
2019-04-10T20:03:08.625Z,48.10
2019-04-10T20:05:39.320Z,48.10
2019-04-10T20:08:09.310Z,48.10
2019-04-10T20:10:39.380Z,48.00
2019-04-10T20:13:08.922Z,48.10
2019-04-10T20:15:38.514Z,48.00
2019-04-10T20:18:08.589Z,48.00
2019-04-10T20:20:39.423Z,48.00
2019-04-10T20:23:09.686Z,48.00
2019-04-10T20:25:39.251Z,48.00
2019-04-10T20:28:08.884Z,48.00
2019-04-10T20:30:38.236Z,48.00
2019-04-10T20:33:08.269Z,48.00
2019-04-10T20:35:37.453Z,47.90
2019-04-10T20:38:07.177Z,47.90
2019-04-10T20:40:36.477Z,47.90
2019-04-10T20:43:06.759Z,47.90
2019-04-10T20:45:36.137Z,48.00
2019-04-10T20:48:06.457Z,48.00
2019-04-10T20:50:36.290Z,48.10
2019-04-10T20:53:05.374Z,48.10
2019-04-10T20:55:35.553Z,48.10
2019-04-10T20:58:06.473Z,48.10
2019-04-10T21:00:43.069Z,48.10
2019-04-10T21:03:13.392Z,48.10
2019-04-10T21:05:42.749Z,48.10
2019-04-10T21:08:11.803Z,48.10
2019-04-10T21:10:40.969Z,48.00
2019-04-10T21:13:10.078Z,48.10
2019-04-10T21:15:39.224Z,48.00
2019-04-10T21:18:08.287Z,48.00
2019-04-10T21:20:37.344Z,48.00
2019-04-10T21:23:06.528Z,48.20
2019-04-10T21:25:35.637Z,48.10
2019-04-10T21:28:04.901Z,48.00
2019-04-10T21:31:00.832Z,48.00
2019-04-10T21:33:52.657Z,48.00
2019-04-10T21:36:21.890Z,48.00
2019-04-10T21:38:50.971Z,47.90
2019-04-10T21:41:21.999Z,47.80
2019-04-10T21:43:52.302Z,47.90
2019-04-10T21:46:22.252Z,47.90
2019-04-10T21:48:52.068Z,47.90
2019-04-10T21:51:21.894Z,47.90
2019-04-10T21:53:51.696Z,47.90
2019-04-10T21:56:21.478Z,47.80
2019-04-10T21:58:51.039Z,47.80
2019-04-10T22:01:21.953Z,47.80
2019-04-10T22:03:52.232Z,47.80
2019-04-10T22:06:39.998Z,47.80
2019-04-10T22:09:34.921Z,47.90
2019-04-10T22:12:23.273Z,47.90
2019-04-10T22:14:41.801Z,47.90
2019-04-10T22:23:45.120Z,47.90
2019-04-10T22:26:14.163Z,48.00
2019-04-10T22:28:43.534Z,48.00
2019-04-10T22:31:13.711Z,48.00
2019-04-10T22:33:42.925Z,48.00
2019-04-10T22:36:12.899Z,48.00
2019-04-10T22:38:42.135Z,48.00
2019-04-10T22:41:20.623Z,48.10
2019-04-10T22:43:42.901Z,48.10
2019-04-10T22:46:13.114Z,48.10
2019-04-10T22:48:43.588Z,48.00
2019-04-10T22:51:12.972Z,48.10
2019-04-10T22:53:42.092Z,48.10
2019-04-10T22:56:11.145Z,48.10
2019-04-10T22:58:42.442Z,48.10
2019-04-10T23:01:13.022Z,48.00
2019-04-10T23:03:43.192Z,48.00
2019-04-10T23:06:13.275Z,48.00
2019-04-10T23:08:42.393Z,47.90
2019-04-10T23:11:11.478Z,47.90
2019-04-10T23:13:40.630Z,48.10
2019-04-10T23:16:09.780Z,48.00
2019-04-10T23:18:39.305Z,48.10
2019-04-10T23:21:08.544Z,47.90
2019-04-10T23:23:37.624Z,47.90
2019-04-10T23:26:06.946Z,48.40
2019-04-10T23:28:36.120Z,47.80
2019-04-10T23:31:05.722Z,48.00
2019-04-10T23:33:34.808Z,47.90
2019-04-10T23:36:03.849Z,47.90
2019-04-10T23:38:33.247Z,48.10
2019-04-10T23:41:02.404Z,47.80
2019-04-10T23:43:31.572Z,47.10
2019-04-10T23:46:00.616Z,46.90
2019-04-10T23:48:30.801Z,46.60
2019-04-10T23:51:00.888Z,46.30
2019-04-10T23:53:30.823Z,45.80
2019-04-10T23:56:00.040Z,45.50
2019-04-10T23:58:29.765Z,45.20
